CheckWX is a tool to help pilots better visualize weather data.  It is not intended as a substitute for an official pre-flight weather briefing.

10:41:24 UTC

PAAD METAR
Point Thomson Airstrip Airport
Deadhorse, Alaska, USA
Current

46 mins ago

PAAD 060955Z AUTO 24015KT 10SM BKN100 OVC110 M09/M11 A2938 RMK AO2 T10931114
Observed
Apr-6 @ 09:55 UTC
Wind
  • 240° at 15 KTS
Visibility
Flight Rules
VFR
Cloud Levels
  • Broken at 10,000' AGL
  • Overcast at 11,000' AGL
Temperature
-9°C / 16°F
Dewpoint
-11°C / 12°F
Humidity
86%
Altimeter
29.38" Hg
Pressure
994.92 hPa
Previous

1 hour ago

PAAD 060935Z AUTO 24015KT 10SM OVC110 M09/M11 A2938 RMK AO2 T10901110
Observed
Apr-6 @ 09:35 UTC
Wind
  • 240° at 15 KTS
Visibility
Flight Rules
VFR
Cloud Levels
  • Overcast at 11,000' AGL
Temperature
-9°C / 16°F
Dewpoint
-11°C / 12°F
Humidity
86%
Altimeter
29.38" Hg
Pressure
994.92 hPa
Previous

1 hour ago

PAAD 060915Z AUTO 24015KT 10SM OVC110 M09/M11 A2938 RMK AO2 T10901110
Observed
Apr-6 @ 09:15 UTC
Wind
  • 240° at 15 KTS
Visibility
Flight Rules
VFR
Cloud Levels
  • Overcast at 11,000' AGL
Temperature
-9°C / 16°F
Dewpoint
-11°C / 12°F
Humidity
86%
Altimeter
29.38" Hg
Pressure
994.92 hPa